createdAt,value
2022-08-25T00:01:57.129Z,22.58
2022-08-25T00:04:24.797Z,22.55
2022-08-25T00:06:53.679Z,22.54
2022-08-25T00:09:22.807Z,22.51
2022-08-25T00:11:50.319Z,22.45
2022-08-25T00:14:23.307Z,22.44
2022-08-25T00:16:50.852Z,22.58
2022-08-25T00:19:26.403Z,22.52
2022-08-25T00:21:53.980Z,22.44
2022-08-25T00:24:21.465Z,22.52
2022-08-25T00:26:50.383Z,22.47
2022-08-25T00:29:17.994Z,22.54
2022-08-25T00:31:45.749Z,22.47
2022-08-25T00:34:15.908Z,22.44
2022-08-25T00:36:43.615Z,22.31
2022-08-25T00:39:11.243Z,22.33
2022-08-25T00:41:39.829Z,22.34
2022-08-25T00:44:07.994Z,22.30
2022-08-25T00:46:41.444Z,22.25
2022-08-25T00:49:33.911Z,22.33
2022-08-25T00:52:22.571Z,22.35
2022-08-25T00:54:53.043Z,22.25
2022-08-25T00:57:34.174Z,22.28
2022-08-25T01:00:07.646Z,22.28
2022-08-25T01:02:35.122Z,22.38
2022-08-25T01:05:02.833Z,22.22
2022-08-25T01:07:30.183Z,22.35
2022-08-25T01:09:57.431Z,22.33
2022-08-25T01:12:24.772Z,22.15
2022-08-25T01:14:52.066Z,22.14
2022-08-25T01:17:20.718Z,22.31
2022-08-25T01:19:48.007Z,22.31
2022-08-25T01:22:17.424Z,22.24
2022-08-25T01:24:53.481Z,22.25
2022-08-25T01:27:20.866Z,22.28
2022-08-25T01:29:48.120Z,22.25
2022-08-25T01:32:15.807Z,22.27
2022-08-25T01:34:44.689Z,22.15
2022-08-25T01:37:13.710Z,22.13
2022-08-25T01:39:41.121Z,22.20
2022-08-25T01:42:11.661Z,22.15
2022-08-25T01:44:43.740Z,22.10
2022-08-25T01:47:11.318Z,22.15
2022-08-25T01:49:38.571Z,22.21
2022-08-25T01:52:33.782Z,22.15
2022-08-25T01:55:01.194Z,22.25
2022-08-25T01:57:31.299Z,22.15
2022-08-25T01:59:59.160Z,22.03
2022-08-25T02:02:26.567Z,22.01
2022-08-25T02:04:53.957Z,21.97
2022-08-25T02:07:22.388Z,21.86
2022-08-25T02:09:49.761Z,21.87
2022-08-25T02:12:17.312Z,21.90
2022-08-25T02:14:44.636Z,21.89
2022-08-25T02:17:11.944Z,21.83
2022-08-25T02:19:39.340Z,21.86
2022-08-25T02:22:06.686Z,21.87
2022-08-25T02:24:35.048Z,21.92
2022-08-25T02:27:04.162Z,21.89
2022-08-25T02:29:31.646Z,21.90
2022-08-25T02:31:59.036Z,21.90
2022-08-25T02:34:26.447Z,21.89
2022-08-25T02:36:53.763Z,21.79
2022-08-25T02:39:21.150Z,21.92
2022-08-25T02:41:48.452Z,21.83
2022-08-25T02:44:16.141Z,21.76
2022-08-25T02:46:43.408Z,21.75
2022-08-25T02:49:10.821Z,21.65
2022-08-25T02:51:38.123Z,21.70
2022-08-25T02:54:05.953Z,21.66
2022-08-25T02:56:33.334Z,21.67
2022-08-25T02:59:01.329Z,21.72
2022-08-25T03:01:29.305Z,21.59
2022-08-25T03:03:57.033Z,21.45
2022-08-25T03:06:24.549Z,21.49
2022-08-25T03:08:52.275Z,21.50
2022-08-25T03:11:19.640Z,21.45
2022-08-25T03:13:47.101Z,21.46
2022-08-25T03:16:14.585Z,21.41
2022-08-25T03:18:42.227Z,21.39
2022-08-25T03:21:11.663Z,21.35
2022-08-25T03:23:39.926Z,21.38
2022-08-25T03:26:30.502Z,21.34
2022-08-25T03:28:57.889Z,21.26
2022-08-25T03:31:26.998Z,21.22
2022-08-25T03:33:54.539Z,21.28
2022-08-25T03:36:21.811Z,21.25
2022-08-25T03:38:49.292Z,21.35
2022-08-25T03:41:19.106Z,21.35
2022-08-25T03:43:48.282Z,21.38
2022-08-25T03:46:19.474Z,21.49
2022-08-25T03:48:47.019Z,21.43
2022-08-25T03:51:26.184Z,21.46
2022-08-25T03:53:53.601Z,21.55
2022-08-25T03:56:20.883Z,21.57
2022-08-25T03:58:48.313Z,21.57
2022-08-25T04:01:16.718Z,21.67
2022-08-25T04:03:46.076Z,21.75
2022-08-25T04:06:13.478Z,21.76
2022-08-25T04:08:40.870Z,21.70
2022-08-25T04:11:13.331Z,21.57
2022-08-25T04:13:42.499Z,21.60
2022-08-25T04:16:14.390Z,21.55
2022-08-25T04:18:42.390Z,21.65
2022-08-25T04:21:10.656Z,21.65
2022-08-25T04:23:38.995Z,21.57
2022-08-25T04:26:29.206Z,21.57
2022-08-25T04:28:57.420Z,21.63
2022-08-25T04:31:24.911Z,21.65
2022-08-25T04:33:52.389Z,21.59
2022-08-25T04:36:20.016Z,21.63
2022-08-25T04:38:47.633Z,21.65
2022-08-25T04:41:16.047Z,21.66
2022-08-25T04:43:44.139Z,21.66
2022-08-25T04:46:23.753Z,21.65
2022-08-25T04:48:52.200Z,21.62
2022-08-25T04:51:23.516Z,21.77
2022-08-25T04:53:50.996Z,21.77
2022-08-25T04:56:21.283Z,21.82
2022-08-25T04:58:48.711Z,21.82
2022-08-25T05:01:18.201Z,21.84
2022-08-25T05:03:46.868Z,21.89
2022-08-25T05:06:16.282Z,21.90
2022-08-25T05:08:45.888Z,21.86
2022-08-25T05:11:14.982Z,21.82
2022-08-25T05:13:43.365Z,21.83
2022-08-25T05:16:11.492Z,21.84
2022-08-25T05:18:39.027Z,21.83
2022-08-25T05:21:11.476Z,21.83
2022-08-25T05:23:38.985Z,21.87
2022-08-25T05:26:20.299Z,21.94
2022-08-25T05:28:49.867Z,21.83
2022-08-25T05:31:17.285Z,21.79
2022-08-25T05:33:44.658Z,21.96
2022-08-25T05:36:12.966Z,21.89
2022-08-25T05:38:41.152Z,21.86
2022-08-25T05:41:10.720Z,21.84
2022-08-25T05:43:39.019Z,21.82
2022-08-25T05:46:06.735Z,21.89
2022-08-25T05:48:34.177Z,21.97
2022-08-25T05:51:02.709Z,22.08
2022-08-25T05:53:31.093Z,22.20
2022-08-25T05:56:01.918Z,22.17
2022-08-25T05:58:29.470Z,22.22
2022-08-25T06:00:57.336Z,22.31
2022-08-25T06:03:24.723Z,22.24
2022-08-25T06:05:52.201Z,22.27
2022-08-25T06:08:20.056Z,22.18
2022-08-25T06:10:52.655Z,22.20
2022-08-25T06:13:26.874Z,22.11
2022-08-25T06:16:00.240Z,22.20
2022-08-25T06:18:27.639Z,22.18
2022-08-25T06:20:54.918Z,22.28
2022-08-25T06:23:22.340Z,22.27
2022-08-25T06:25:51.125Z,22.28
2022-08-25T06:28:19.520Z,22.42
2022-08-25T06:30:47.844Z,22.77
2022-08-25T06:33:15.712Z,23.17
2022-08-25T06:35:43.632Z,23.39
2022-08-25T06:38:12.033Z,23.27
2022-08-25T06:40:39.705Z,23.49
2022-08-25T06:43:09.059Z,23.43
2022-08-25T06:45:36.353Z,23.50
2022-08-25T06:48:03.918Z,23.39
2022-08-25T06:50:31.471Z,23.21
2022-08-25T06:52:58.872Z,23.54
2022-08-25T06:55:26.232Z,23.78
2022-08-25T06:57:55.108Z,23.55
2022-08-25T07:00:23.221Z,23.43
2022-08-25T07:02:59.187Z,23.20
2022-08-25T07:05:40.891Z,23.20
2022-08-25T07:08:12.101Z,23.10
2022-08-25T07:10:39.840Z,23.03
2022-08-25T07:13:07.272Z,22.86
2022-08-25T07:15:38.744Z,22.68
2022-08-25T07:18:07.849Z,22.81
2022-08-25T07:20:35.895Z,22.85
2022-08-25T07:23:04.604Z,23.03
2022-08-25T07:25:34.989Z,23.39
2022-08-25T07:28:02.475Z,23.62
2022-08-25T07:30:30.046Z,23.62
2022-08-25T07:32:57.536Z,23.64
2022-08-25T07:35:27.453Z,23.74
2022-08-25T07:38:06.752Z,24.13
2022-08-25T07:40:38.238Z,24.40
2022-08-25T07:43:10.770Z,24.47
2022-08-25T07:45:43.150Z,24.37
2022-08-25T07:48:17.774Z,24.26
2022-08-25T07:50:46.699Z,24.10
2022-08-25T07:53:15.065Z,24.16
2022-08-25T07:55:45.096Z,24.12
2022-08-25T07:58:13.070Z,24.12
2022-08-25T08:00:42.390Z,24.29
2022-08-25T08:03:19.935Z,24.23
2022-08-25T08:05:58.231Z,24.44
2022-08-25T08:08:25.569Z,24.44
2022-08-25T08:11:04.053Z,24.83
2022-08-25T08:13:37.917Z,26.21
2022-08-25T08:16:11.893Z,27.03
2022-08-25T08:18:43.166Z,27.60
2022-08-25T08:21:19.180Z,26.79
2022-08-25T08:23:49.199Z,25.87
2022-08-25T08:26:20.608Z,25.28
2022-08-25T08:28:52.159Z,25.36
2022-08-25T08:31:21.519Z,25.28
2022-08-25T08:33:50.297Z,25.43
2022-08-25T08:36:18.939Z,25.66
2022-08-25T08:38:49.041Z,26.13
2022-08-25T08:44:35.349Z,27.67
2022-08-25T08:47:19.172Z,26.88
2022-08-25T08:49:58.703Z,26.25
2022-08-25T08:53:01.384Z,26.79
2022-08-25T08:55:54.129Z,26.78
2022-08-25T08:58:24.107Z,26.59
2022-08-25T09:00:55.866Z,26.88
2022-08-25T09:03:40.790Z,26.21
2022-08-25T09:06:23.285Z,26.14
2022-08-25T09:08:51.587Z,26.20
2022-08-25T09:11:23.785Z,26.38
2022-08-25T09:14:18.547Z,26.81
2022-08-25T09:17:19.519Z,26.79
2022-08-25T09:19:52.891Z,26.38
2022-08-25T09:22:40.281Z,26.88
2022-08-25T09:25:08.913Z,27.09
2022-08-25T09:27:58.099Z,26.86
2022-08-25T09:30:27.026Z,26.21
2022-08-25T09:33:02.236Z,26.33
2022-08-25T09:35:34.705Z,26.61
2022-08-25T09:38:07.568Z,26.82
2022-08-25T09:40:40.904Z,26.59
2022-08-25T09:43:41.388Z,26.37
2022-08-25T09:46:08.857Z,26.18
2022-08-25T09:48:43.424Z,26.55
2022-08-25T09:51:21.390Z,26.95
2022-08-25T09:53:53.808Z,27.09
2022-08-25T09:56:22.653Z,27.49
2022-08-25T09:58:50.341Z,27.60
2022-08-25T10:01:22.349Z,27.57
2022-08-25T10:04:04.348Z,27.53
2022-08-25T10:06:45.407Z,27.99
2022-08-25T10:09:22.326Z,27.82
2022-08-25T10:11:49.721Z,27.87
2022-08-25T10:14:19.572Z,27.87
2022-08-25T10:16:48.107Z,27.03
2022-08-25T10:19:21.974Z,26.95
2022-08-25T10:22:10.936Z,27.22
2022-08-25T10:24:41.009Z,27.99
2022-08-25T10:27:29.968Z,28.12
2022-08-25T10:30:26.011Z,27.85
2022-08-25T10:33:10.570Z,27.31
2022-08-25T10:36:00.131Z,27.44
2022-08-25T10:38:48.568Z,27.82
2022-08-25T10:41:36.233Z,27.84
2022-08-25T10:44:04.273Z,28.08
2022-08-25T10:46:47.625Z,28.61
2022-08-25T10:49:36.187Z,28.74
2022-08-25T10:52:08.219Z,28.66
2022-08-25T10:55:00.834Z,28.60
2022-08-25T10:57:36.259Z,28.06
2022-08-25T11:00:14.155Z,27.89
2022-08-25T11:02:48.271Z,27.91
2022-08-25T11:05:24.611Z,28.46
2022-08-25T11:07:55.753Z,28.77
2022-08-25T11:10:26.881Z,28.59
2022-08-25T11:13:02.518Z,29.15
2022-08-25T11:15:37.084Z,28.42
2022-08-25T11:18:14.981Z,28.43
2022-08-25T11:20:50.317Z,29.21
2022-08-25T11:23:22.027Z,29.63
2022-08-25T11:25:59.931Z,29.73
2022-08-25T11:28:39.741Z,29.29
2022-08-25T11:31:08.851Z,28.80
2022-08-25T11:33:36.791Z,28.81
2022-08-25T11:36:30.771Z,28.71
2022-08-25T11:39:16.993Z,29.29
2022-08-25T11:42:21.686Z,29.39
2022-08-25T11:45:08.935Z,29.01
2022-08-25T11:48:00.773Z,28.56
2022-08-25T11:50:35.588Z,28.66
2022-08-25T11:53:26.651Z,28.87
2022-08-25T11:56:04.385Z,29.11
2022-08-25T11:58:34.651Z,28.46
2022-08-25T12:01:02.851Z,27.94
2022-08-25T12:03:34.132Z,27.70
2022-08-25T12:06:15.317Z,27.64
2022-08-25T12:08:57.630Z,27.81
2022-08-25T12:11:49.276Z,27.60
2022-08-25T12:14:16.842Z,27.82
2022-08-25T12:16:57.336Z,28.33
2022-08-25T12:19:28.640Z,28.05
2022-08-25T12:21:59.178Z,27.98
2022-08-25T12:24:48.336Z,27.87
2022-08-25T12:27:34.141Z,27.78
2022-08-25T12:30:40.174Z,28.02
2022-08-25T12:33:33.048Z,28.76
2022-08-25T12:36:02.474Z,28.87
2022-08-25T12:38:50.922Z,28.80
2022-08-25T12:41:33.751Z,29.27
2022-08-25T12:44:35.663Z,29.22
2022-08-25T12:47:27.354Z,29.36
2022-08-25T12:50:33.481Z,29.56
2022-08-25T12:53:39.936Z,29.97
2022-08-25T12:56:20.562Z,30.16
2022-08-25T12:59:13.481Z,29.19
2022-08-25T13:02:03.208Z,28.98
2022-08-25T13:04:41.644Z,28.80
2022-08-25T13:07:15.647Z,28.64
2022-08-25T13:09:49.895Z,28.43
2022-08-25T13:12:32.547Z,28.52
2022-08-25T13:15:01.321Z,29.08
2022-08-25T13:17:33.928Z,29.56
2022-08-25T13:20:15.135Z,30.37
2022-08-25T13:22:45.190Z,30.75
2022-08-25T13:25:23.061Z,31.19
2022-08-25T13:27:52.153Z,31.25
2022-08-25T13:30:33.576Z,31.30
2022-08-25T13:33:01.100Z,31.46
2022-08-25T13:35:38.405Z,31.12
2022-08-25T13:38:15.779Z,30.83
2022-08-25T13:40:44.330Z,30.06
2022-08-25T13:43:13.226Z,29.87
2022-08-25T13:45:45.505Z,29.45
2022-08-25T13:48:23.156Z,29.35
2022-08-25T13:50:53.690Z,29.44
2022-08-25T13:53:25.613Z,29.90
2022-08-25T13:56:00.801Z,29.82
2022-08-25T13:58:44.293Z,29.94
2022-08-25T14:01:22.420Z,29.97
2022-08-25T14:04:51.664Z,29.89
2022-08-25T14:07:20.933Z,29.62
2022-08-25T14:10:06.770Z,29.49
2022-08-25T14:12:44.931Z,29.10
2022-08-25T14:15:15.746Z,29.14
2022-08-25T14:18:00.910Z,29.01
2022-08-25T14:20:29.825Z,29.11
2022-08-25T14:22:59.291Z,29.59
2022-08-25T14:25:27.938Z,29.80
2022-08-25T14:28:09.140Z,29.94
2022-08-25T14:30:43.393Z,30.17
2022-08-25T14:33:10.906Z,30.21
2022-08-25T14:35:38.259Z,30.03
2022-08-25T14:38:10.871Z,29.75
2022-08-25T14:40:39.658Z,30.04
2022-08-25T14:43:09.606Z,30.28
2022-08-25T14:45:39.953Z,29.89
2022-08-25T14:48:10.623Z,30.02
2022-08-25T14:50:41.151Z,30.17
2022-08-25T14:53:10.645Z,29.94
2022-08-25T14:55:38.943Z,29.83
2022-08-25T14:58:07.914Z,29.79
2022-08-25T15:00:37.576Z,29.79
2022-08-25T15:03:05.172Z,29.73
2022-08-25T15:05:32.542Z,29.75
2022-08-25T15:08:18.420Z,29.75
2022-08-25T15:10:46.779Z,29.73
2022-08-25T15:13:14.821Z,29.65
2022-08-25T15:15:52.762Z,29.62
2022-08-25T15:18:21.792Z,29.72
2022-08-25T15:20:49.986Z,29.66
2022-08-25T15:23:18.713Z,29.65
2022-08-25T15:25:46.908Z,29.41
2022-08-25T15:28:17.128Z,29.46
2022-08-25T15:30:45.937Z,29.52
2022-08-25T15:33:14.288Z,29.45
2022-08-25T15:35:41.834Z,29.44
2022-08-25T15:38:10.851Z,29.42
2022-08-25T15:40:39.191Z,29.48
2022-08-25T15:43:06.947Z,29.42
2022-08-25T15:45:36.361Z,29.41
2022-08-25T15:48:06.828Z,29.38
2022-08-25T15:50:37.326Z,29.32
2022-08-25T15:53:07.041Z,29.17
2022-08-25T15:55:40.938Z,29.12
2022-08-25T15:58:08.885Z,29.19
2022-08-25T16:00:37.882Z,29.14
2022-08-25T16:03:08.072Z,29.04
2022-08-25T16:05:39.768Z,28.96
2022-08-25T16:08:19.590Z,28.81
2022-08-25T16:10:47.569Z,29.01
2022-08-25T16:13:14.872Z,28.86
2022-08-25T16:15:46.849Z,28.91
2022-08-25T16:18:21.516Z,28.86
2022-08-25T16:20:49.218Z,28.78
2022-08-25T16:23:17.611Z,28.81
2022-08-25T16:25:46.374Z,28.67
2022-08-25T16:28:14.802Z,28.60
2022-08-25T16:30:52.542Z,28.53
2022-08-25T16:33:20.667Z,28.55
2022-08-25T16:35:49.301Z,28.42
2022-08-25T16:38:16.926Z,28.46
2022-08-25T16:40:46.131Z,28.32
2022-08-25T16:43:13.615Z,28.31
2022-08-25T16:45:41.109Z,28.25
2022-08-25T16:48:08.984Z,28.23
2022-08-25T16:50:39.258Z,28.02
2022-08-25T16:53:25.239Z,28.04
2022-08-25T16:56:01.669Z,27.97
2022-08-25T16:58:30.181Z,27.91
2022-08-25T17:01:04.893Z,27.87
2022-08-25T17:03:34.953Z,27.76
2022-08-25T17:06:02.441Z,27.68
2022-08-25T17:08:30.734Z,27.70
2022-08-25T17:11:10.600Z,27.70
2022-08-25T17:13:39.763Z,27.60
2022-08-25T17:16:12.799Z,27.60
2022-08-25T17:18:42.729Z,27.62
2022-08-25T17:21:17.043Z,27.55
2022-08-25T17:23:51.691Z,27.49
2022-08-25T17:26:19.352Z,27.34
2022-08-25T17:28:46.926Z,27.30
2022-08-25T17:31:14.849Z,27.34
2022-08-25T17:33:42.354Z,27.33
2022-08-25T17:36:12.149Z,27.17
2022-08-25T17:38:44.058Z,27.16
2022-08-25T17:41:11.687Z,27.23
2022-08-25T17:43:41.235Z,27.19
2022-08-25T17:46:08.990Z,27.04
2022-08-25T17:48:38.091Z,27.10
2022-08-25T17:51:11.709Z,26.89
2022-08-25T17:53:39.157Z,26.91
2022-08-25T17:56:08.923Z,26.76
2022-08-25T17:58:36.585Z,26.85
2022-08-25T18:01:04.498Z,26.91
2022-08-25T18:03:32.915Z,26.72
2022-08-25T18:06:00.645Z,26.75
2022-08-25T18:08:35.068Z,26.52
2022-08-25T18:11:04.839Z,26.58
2022-08-25T18:13:32.254Z,26.67
2022-08-25T18:16:00.390Z,26.61
2022-08-25T18:18:27.918Z,26.41
2022-08-25T18:20:55.305Z,26.25
2022-08-25T18:23:22.690Z,26.14
2022-08-25T18:25:50.353Z,26.04
2022-08-25T18:28:17.735Z,26.13
2022-08-25T18:30:45.998Z,25.98
2022-08-25T18:33:13.814Z,25.92
2022-08-25T18:35:41.320Z,25.94
2022-08-25T18:38:27.131Z,25.94
2022-08-25T18:40:58.945Z,25.92
2022-08-25T18:43:26.552Z,25.93
2022-08-25T18:45:55.092Z,26.13
2022-08-25T18:48:26.519Z,26.17
2022-08-25T18:50:54.373Z,25.90
2022-08-25T18:53:36.680Z,25.77
2022-08-25T18:56:05.841Z,25.82
2022-08-25T18:58:33.383Z,25.70
2022-08-25T19:01:01.702Z,25.67
2022-08-25T19:03:29.070Z,25.69
2022-08-25T19:05:57.872Z,25.59
2022-08-25T19:08:25.300Z,25.58
2022-08-25T19:10:53.692Z,25.58
2022-08-25T19:13:22.778Z,25.53
2022-08-25T19:15:50.859Z,25.56
2022-08-25T19:18:19.361Z,25.59
2022-08-25T19:20:53.835Z,25.48
2022-08-25T19:23:21.465Z,25.36
2022-08-25T19:25:49.019Z,25.50
2022-08-25T19:28:17.028Z,25.46
2022-08-25T19:30:50.531Z,25.39
2022-08-25T19:33:31.377Z,25.36
2022-08-25T19:36:08.581Z,25.48
2022-08-25T19:38:36.740Z,25.39
2022-08-25T19:41:09.387Z,25.32
2022-08-25T19:43:56.609Z,25.28
2022-08-25T19:46:35.394Z,25.34
2022-08-25T19:49:16.452Z,25.32
2022-08-25T19:51:47.533Z,25.25
2022-08-25T19:54:21.424Z,25.10
2022-08-25T19:56:54.231Z,25.03
2022-08-25T19:59:24.808Z,24.94
2022-08-25T20:01:52.376Z,25.01
2022-08-25T20:04:20.022Z,24.94
2022-08-25T20:06:48.439Z,24.95
2022-08-25T20:09:35.623Z,25.03
2022-08-25T20:12:06.273Z,24.88
2022-08-25T20:14:34.168Z,24.78
2022-08-25T20:17:03.091Z,24.78
2022-08-25T20:19:31.458Z,24.73
2022-08-25T20:21:59.589Z,24.67
2022-08-25T20:24:46.408Z,24.50
2022-08-25T20:27:13.834Z,24.55
2022-08-25T20:29:41.214Z,24.68
2022-08-25T20:32:12.207Z,24.57
2022-08-25T20:34:41.500Z,24.56
2022-08-25T20:37:09.279Z,24.49
2022-08-25T20:39:36.872Z,24.44
2022-08-25T20:42:04.672Z,24.26
2022-08-25T20:44:39.937Z,24.05
2022-08-25T20:47:13.037Z,23.89
2022-08-25T20:49:40.810Z,23.92
2022-08-25T20:52:09.358Z,23.89
2022-08-25T20:54:37.068Z,23.82
2022-08-25T20:57:04.937Z,23.89
2022-08-25T20:59:35.336Z,23.91
2022-08-25T21:02:02.923Z,23.84
2022-08-25T21:04:31.316Z,23.75
2022-08-25T21:07:00.346Z,23.54
2022-08-25T21:09:28.698Z,23.57
2022-08-25T21:11:56.991Z,23.70
2022-08-25T21:14:24.802Z,23.77
2022-08-25T21:16:53.805Z,23.77
2022-08-25T21:19:26.694Z,23.75
2022-08-25T21:21:59.637Z,23.79
2022-08-25T21:24:27.589Z,23.77
2022-08-25T21:26:56.150Z,23.77
2022-08-25T21:29:24.485Z,23.54
2022-08-25T21:31:51.803Z,23.55
2022-08-25T21:34:19.643Z,23.46
2022-08-25T21:36:48.527Z,23.46
2022-08-25T21:39:15.978Z,23.51
2022-08-25T21:41:45.792Z,23.60
2022-08-25T21:44:13.842Z,23.55
2022-08-25T21:46:41.601Z,23.57
2022-08-25T21:49:21.259Z,23.49
2022-08-25T21:51:51.033Z,23.55
2022-08-25T21:54:27.109Z,23.67
2022-08-25T21:57:03.541Z,23.49
2022-08-25T21:59:36.562Z,23.51
2022-08-25T22:02:05.940Z,23.43
2022-08-25T22:04:33.568Z,23.47
2022-08-25T22:07:01.220Z,23.50
2022-08-25T22:09:30.058Z,23.46
2022-08-25T22:11:57.622Z,23.49
2022-08-25T22:14:26.469Z,23.44
2022-08-25T22:16:54.890Z,23.40
2022-08-25T22:19:22.835Z,23.30
2022-08-25T22:21:51.190Z,23.27
2022-08-25T22:24:19.055Z,23.30
2022-08-25T22:26:47.552Z,23.31
2022-08-25T22:29:25.050Z,23.31
2022-08-25T22:31:59.786Z,23.28
2022-08-25T22:34:34.570Z,23.26
2022-08-25T22:37:03.485Z,23.24
2022-08-25T22:39:31.470Z,23.26
2022-08-25T22:41:59.985Z,23.26
2022-08-25T22:44:27.499Z,23.19
2022-08-25T22:46:55.267Z,23.26
2022-08-25T22:49:23.803Z,23.16
2022-08-25T22:51:53.791Z,23.20
2022-08-25T22:54:23.065Z,23.17
2022-08-25T22:56:52.700Z,23.10
2022-08-25T22:59:20.069Z,22.99
2022-08-25T23:01:49.772Z,23.04
2022-08-25T23:04:17.681Z,23.10
2022-08-25T23:06:47.208Z,23.10
2022-08-25T23:09:14.652Z,23.03
2022-08-25T23:11:43.170Z,22.99
2022-08-25T23:14:11.268Z,22.88
2022-08-25T23:16:39.737Z,22.83
2022-08-25T23:19:14.014Z,22.83
2022-08-25T23:22:01.299Z,22.86
2022-08-25T23:24:30.660Z,22.86
2022-08-25T23:26:59.366Z,22.89
2022-08-25T23:29:27.902Z,22.91
2022-08-25T23:31:55.625Z,22.89
2022-08-25T23:34:23.458Z,22.82
2022-08-25T23:36:51.270Z,22.79
2022-08-25T23:39:18.809Z,22.75
2022-08-25T23:41:50.110Z,22.81
2022-08-25T23:44:18.681Z,22.75
2022-08-25T23:46:47.165Z,22.79
2022-08-25T23:49:18.437Z,22.68
2022-08-25T23:51:50.353Z,22.66
2022-08-25T23:54:19.895Z,22.76
2022-08-25T23:56:52.480Z,22.76
2022-08-25T23:59:24.424Z,22.79
